Time;durP1;ratioP1;P1;durP2;ratioP2;P2;SDS_P1;SDS_P2;PMS_P1;PMS_P2;Temp;Humidity;BMP_temperature;BMP_pressure;BME280_temperature;BME280_humidity;BME280_pressure;Samples;Min_cycle;Max_cycle;Signal;HPM_P1;HPM_P2
2021/01/31 00:01:39;;;;;;;3.65;2.22;;;;;;;4.51;75.92;96174.09;1818952;78;21130;-65
2021/01/31 00:04:07;;;;;;;3.98;2.33;;;;;;;4.41;76.05;96180.59;1819066;79;21288;-66
2021/01/31 00:06:35;;;;;;;3.75;2.10;;;;;;;4.32;75.96;96183.25;1819072;78;21260;-66
2021/01/31 00:09:04;;;;;;;5.45;2.77;;;;;;;4.22;76.12;96187.16;1819032;79;21308;-65
2021/01/31 00:11:37;;;;;;;4.90;2.90;;;;;;;4.14;76.32;96185.80;1818933;78;21170;-66
2021/01/31 00:14:05;;;;;;;7.35;2.58;;;;;;;4.09;76.73;96190.55;1818948;79;21555;-65
2021/01/31 00:16:33;;;;;;;5.47;3.75;;;;;;;4.02;76.78;96194.19;1818875;79;21126;-64
2021/01/31 00:19:01;;;;;;;3.55;2.15;;;;;;;3.98;76.94;96198.00;1818856;78;21236;-66
2021/01/31 00:21:29;;;;;;;4.55;2.50;;;;;;;3.93;77.25;96191.70;1819009;78;21248;-70
2021/01/31 00:23:57;;;;;;;3.72;2.75;;;;;;;3.89;76.99;96191.66;1818716;79;21138;-69
2021/01/31 00:26:26;;;;;;;6.12;3.27;;;;;;;3.86;77.16;96199.63;1818747;79;21130;-69
2021/01/31 00:28:56;;;;;;;6.92;3.35;;;;;;;3.82;77.19;96197.83;1819009;79;21130;-69
2021/01/31 00:31:27;;;;;;;3.90;3.05;;;;;;;3.77;77.38;96189.77;1819096;79;21618;-69
2021/01/31 00:33:55;;;;;;;5.30;2.50;;;;;;;3.75;77.64;96198.07;1819016;78;21265;-69
2021/01/31 00:36:23;;;;;;;6.17;3.50;;;;;;;3.70;77.66;96197.21;1818472;79;21103;-65
2021/01/31 00:38:51;;;;;;;5.05;3.00;;;;;;;3.69;77.70;96205.08;1818585;78;21131;-71
2021/01/31 00:41:19;;;;;;;5.40;3.10;;;;;;;3.65;77.71;96208.88;1818501;79;21125;-70
2021/01/31 00:43:48;;;;;;;6.78;3.45;;;;;;;3.61;77.54;96210.92;1818517;78;21130;-71
2021/01/31 00:46:16;;;;;;;6.92;3.17;;;;;;;3.59;77.06;96220.51;1818426;78;21221;-70
2021/01/31 00:48:44;;;;;;;5.10;2.67;;;;;;;3.56;77.02;96231.53;1818465;78;21162;-71
2021/01/31 00:51:13;;;;;;;5.72;3.75;;;;;;;3.51;76.78;96238.84;1818790;78;21344;-71
2021/01/31 00:53:41;;;;;;;3.83;2.80;;;;;;;3.47;76.60;96233.19;1818857;78;21512;-65
2021/01/31 00:56:13;;;;;;;7.05;3.77;;;;;;;3.42;76.79;96227.69;1818519;79;21118;-66
2021/01/31 00:58:44;;;;;;;3.62;2.65;;;;;;;3.38;76.96;96227.63;1818693;79;21178;-64
2021/01/31 01:01:20;;;;;;;7.00;3.45;;;;;;;3.34;76.92;96230.14;1818735;79;21163;-67
2021/01/31 01:03:49;;;;;;;6.25;2.80;;;;;;;3.32;76.93;96232.02;1786695;80;21151;-68
2021/01/31 01:06:25;;;;;;;6.05;3.45;;;;;;;3.26;76.93;96233.41;1782366;80;21198;-70
2021/01/31 01:08:54;;;;;;;5.90;3.83;;;;;;;3.24;77.06;96235.29;1787341;80;21147;-71
2021/01/31 01:11:22;;;;;;;4.92;3.08;;;;;;;3.23;77.15;96243.14;1787041;80;21141;-64
2021/01/31 01:13:51;;;;;;;7.47;3.90;;;;;;;3.20;77.20;96233.14;1786635;80;21135;-65
2021/01/31 01:16:19;;;;;;;6.72;3.77;;;;;;;3.14;77.82;96233.70;1786696;79;21587;-69
2021/01/31 01:18:48;;;;;;;6.30;3.52;;;;;;;3.10;78.02;96237.49;1786350;80;21138;-67
2021/01/31 01:21:16;;;;;;;6.20;3.25;;;;;;;3.09;77.62;96237.15;1786793;80;21103;-64
2021/01/31 01:23:46;;;;;;;5.25;3.58;;;;;;;3.05;77.62;96237.91;1786577;80;21420;-64
2021/01/31 01:26:14;;;;;;;6.75;3.30;;;;;;;2.99;78.12;96238.47;1786956;80;21173;-67
2021/01/31 01:28:42;;;;;;;6.28;4.00;;;;;;;2.98;78.03;96237.31;1786782;80;21197;-69
2021/01/31 01:31:10;;;;;;;5.10;3.67;;;;;;;2.93;77.86;96231.31;1786566;80;21139;-65
2021/01/31 01:33:39;;;;;;;7.12;3.00;;;;;;;2.95;77.46;96244.00;1786539;80;21095;-64
2021/01/31 01:36:07;;;;;;;5.08;2.77;;;;;;;2.94;77.27;96240.62;1786540;80;21126;-66
2021/01/31 01:38:35;;;;;;;5.50;3.67;;;;;;;2.92;77.10;96242.50;1786365;80;21150;-69
2021/01/31 01:41:03;;;;;;;8.20;4.08;;;;;;;2.90;77.99;96243.13;1786662;80;21122;-69
2021/01/31 01:43:31;;;;;;;9.40;4.08;;;;;;;2.92;77.82;96245.56;1790266;80;21597;-70
2021/01/31 01:46:41;;;;;;;4.60;3.67;;;;;;;2.87;78.42;96248.54;1795335;80;21122;-70
2021/01/31 01:49:48;;;;;;;4.67;3.42;;;;;;;2.93;77.71;96249.73;1822537;77;23068;-70
2021/01/31 01:52:25;;;;;;;7.85;3.40;;;;;;;2.87;77.67;96248.54;1823239;79;21279;-71
2021/01/31 01:55:16;;;;;;;6.60;3.87;;;;;;;2.85;77.89;96255.54;1827042;78;21152;-70
2021/01/31 01:57:49;;;;;;;6.37;3.60;;;;;;;2.81;78.39;96258.85;1823219;79;21139;-70
2021/01/31 02:00:20;;;;;;;6.10;3.58;;;;;;;2.80;78.05;96252.59;1821739;78;21116;-70
2021/01/31 02:02:56;;;;;;;5.67;3.62;;;;;;;2.80;78.05;96248.25;1823236;78;21567;-71
2021/01/31 02:06:04;;;;;;;2.60;2.17;;;;;;;2.84;77.90;96249.59;1823796;77;23131;-70
2021/01/31 02:08:32;;;;;;;5.47;3.55;;;;;;;2.79;78.14;96249.69;1760737;81;21160;-66
2021/01/31 02:11:00;;;;;;;7.20;4.55;;;;;;;2.80;77.31;96245.69;1770371;81;21166;-69
2021/01/31 02:13:32;;;;;;;8.13;3.62;;;;;;;2.80;77.75;96246.19;1760626;81;21211;-71
2021/01/31 02:16:04;;;;;;;7.30;4.08;;;;;;;2.81;77.62;96248.59;1770395;81;21179;-70
2021/01/31 02:19:27;;;;;;;4.95;3.40;;;;;;;2.83;77.64;96250.56;1761149;81;21179;-71
2021/01/31 02:22:19;;;;;;;8.38;4.33;;;;;;;2.82;77.50;96251.51;1677244;85;21170;-73
2021/01/31 02:25:20;;;;;;;7.47;5.03;;;;;;;2.82;77.82;96249.41;1703883;83;21176;-71
2021/01/31 02:28:37;;;;;;;6.37;4.30;;;;;;;2.85;77.62;96235.84;1708549;83;21151;-65
2021/01/31 02:31:44;;;;;;;8.15;4.30;;;;;;;2.89;77.60;96240.22;1708307;84;21199;-67
2021/01/31 02:35:35;;;;;;;4.50;3.47;;;;;;;2.96;78.05;96239.22;1846202;77;22971;-71
2021/01/31 02:45:04;;;;;;;8.80;4.28;;;;;;;3.05;77.75;96233.24;1754821;81;21293;-71
2021/01/31 02:47:34;;;;;;;8.38;4.78;;;;;;;3.07;77.68;96239.88;1752381;80;21147;-70
2021/01/31 02:50:11;;;;;;;9.20;4.10;;;;;;;3.00;77.55;96245.19;1733190;81;21536;-71
2021/01/31 02:52:44;;;;;;;8.60;4.80;;;;;;;2.99;77.71;96239.75;1753829;80;21175;-71
2021/01/31 02:55:33;;;;;;;6.20;4.37;;;;;;;2.99;77.60;96238.47;1753693;80;21166;-69
2021/01/31 02:58:22;;;;;;;10.30;5.17;;;;;;;3.04;77.17;96236.28;1754286;81;21158;-69
2021/01/31 03:01:09;;;;;;;13.60;4.42;;;;;;;3.02;76.63;96234.81;1754129;81;21206;-69
2021/01/31 03:03:44;;;;;;;9.05;4.90;;;;;;;3.00;76.75;96232.38;1754240;81;21594;-69
2021/01/31 03:06:18;;;;;;;10.05;5.00;;;;;;;3.00;76.92;96229.81;1754081;80;21300;-71
2021/01/31 03:09:04;;;;;;;7.28;4.47;;;;;;;3.01;76.95;96237.03;1754823;81;21714;-69
2021/01/31 03:11:40;;;;;;;7.45;4.42;;;;;;;2.92;77.29;96243.00;1730687;82;21641;-71
2021/01/31 03:14:25;;;;;;;7.58;4.15;;;;;;;2.89;77.34;96237.66;1754192;81;21154;-70
2021/01/31 03:17:28;;;;;;;10.25;4.58;;;;;;;2.83;77.64;96238.22;1754365;81;21142;-69
2021/01/31 03:20:19;;;;;;;7.67;4.28;;;;;;;2.78;77.66;96248.88;1754395;81;21233;-64
2021/01/31 03:23:22;;;;;;;7.22;4.55;;;;;;;2.76;77.76;96255.09;1733211;81;21186;-65
2021/01/31 03:25:58;;;;;;;8.15;4.65;;;;;;;2.69;78.11;96255.28;1717443;83;21132;-64
2021/01/31 03:28:26;;;;;;;;;;;;;;;2.63;78.59;96257.93;1719866;83;21159;-65
2021/01/31 03:30:57;;;;;;;10.48;6.03;;;;;;;2.57;79.00;96253.33;1711043;82;20153;-64
2021/01/31 03:33:30;;;;;;;10.38;5.12;;;;;;;2.47;79.49;96247.88;1753949;81;21276;-66
2021/01/31 03:36:00;;;;;;;7.15;4.75;;;;;;;2.46;79.29;96249.63;1753875;79;21163;-65
2021/01/31 03:38:39;;;;;;;10.23;5.80;;;;;;;2.42;79.71;96247.45;1754016;80;21154;-69
2021/01/31 03:41:11;;;;;;;7.92;4.35;;;;;;;2.35;79.84;96253.13;1753672;80;21150;-70
2021/01/31 03:43:40;;;;;;;11.03;6.00;;;;;;;2.28;80.49;96248.67;1754024;81;21146;-70
2021/01/31 03:46:25;;;;;;;6.90;4.65;;;;;;;2.23;80.71;96246.97;1756320;81;21151;-64
2021/01/31 03:49:26;;;;;;;7.50;4.25;;;;;;;2.22;80.24;96248.72;1756585;82;21175;-65
2021/01/31 03:51:55;;;;;;;9.80;4.67;;;;;;;2.21;80.09;96252.71;1756197;81;21571;-64
2021/01/31 03:54:24;;;;;;;7.10;3.62;;;;;;;2.17;80.04;96263.70;1756139;82;21191;-64
2021/01/31 03:57:12;;;;;;;12.82;3.72;;;;;;;2.17;79.99;96263.70;1756093;82;21162;-64
2021/01/31 04:00:02;;;;;;;7.47;4.12;;;;;;;2.14;80.26;96269.55;1756183;81;21165;-65
2021/01/31 04:02:44;;;;;;;8.58;5.62;;;;;;;2.11;80.48;96273.17;1756348;82;21198;-64
2021/01/31 04:05:14;;;;;;;7.05;4.78;;;;;;;2.10;80.48;96270.76;1755879;80;21134;-64
2021/01/31 04:07:45;;;;;;;6.33;4.60;;;;;;;2.08;80.86;96261.10;1756383;80;21169;-64
2021/01/31 04:10:16;;;;;;;8.70;4.62;;;;;;;2.09;80.18;96264.01;1756351;82;21197;-64
2021/01/31 04:12:49;;;;;;;6.03;3.77;;;;;;;2.08;80.05;96264.48;1756307;82;21150;-64
2021/01/31 04:15:42;;;;;;;7.90;3.77;;;;;;;2.08;80.29;96271.34;1756410;82;21456;-67
2021/01/31 04:18:13;;;;;;;10.48;5.05;;;;;;;2.06;80.42;96268.94;1756232;82;21159;-64
2021/01/31 04:20:44;;;;;;;5.75;4.00;;;;;;;2.04;80.67;96281.05;1756013;82;21126;-66
2021/01/31 04:23:12;;;;;;;6.92;4.00;;;;;;;2.04;80.37;96276.39;1729290;82;21238;-66
2021/01/31 04:25:41;;;;;;;7.22;3.80;;;;;;;2.04;80.36;96279.77;1756444;82;21422;-66
2021/01/31 04:28:17;;;;;;;6.72;3.98;;;;;;;2.03;79.94;96281.16;1756132;80;21127;-65
2021/01/31 04:30:49;;;;;;;8.95;3.58;;;;;;;2.04;80.32;96277.20;1756412;80;21218;-69
2021/01/31 04:33:17;;;;;;;13.93;5.83;;;;;;;2.00;80.64;96271.19;1756249;81;21150;-71
2021/01/31 04:35:47;;;;;;;6.67;4.08;;;;;;;1.99;80.65;96274.68;1756046;82;21543;-69
2021/01/31 04:38:17;;;;;;;8.13;5.05;;;;;;;1.91;81.90;96265.91;1756105;80;21214;-69
2021/01/31 04:40:45;;;;;;;7.35;4.33;;;;;;;1.83;82.64;96278.55;1756029;82;21666;-69
2021/01/31 04:43:19;;;;;;;4.97;3.62;;;;;;;1.76;83.04;96267.22;1756242;82;21197;-69
2021/01/31 04:45:48;;;;;;;7.28;4.42;;;;;;;1.67;84.11;96273.13;1753447;81;21236;-70
2021/01/31 04:52:08;;;;;;;6.75;4.05;;;;;;;1.61;84.51;96271.53;1748610;81;21155;-70
2021/01/31 04:58:17;;;;;;;6.85;4.45;;;;;;;1.43;86.10;96277.27;1646751;83;21792;-70
2021/01/31 05:01:06;;;;;;;6.03;3.25;;;;;;;1.54;86.00;96278.11;1725527;83;21603;-70
2021/01/31 05:03:56;;;;;;;6.30;3.92;;;;;;;1.61;85.73;96288.16;1725446;82;21162;-69
2021/01/31 05:06:28;;;;;;;8.93;5.22;;;;;;;1.65;85.29;96284.41;1726640;83;21158;-70
2021/01/31 05:08:58;;;;;;;6.72;4.00;;;;;;;1.65;85.77;96282.67;1725711;83;21625;-72
2021/01/31 05:15:10;;;;;;;7.08;3.98;;;;;;;1.68;85.50;96300.78;1744993;80;21134;-71
2021/01/31 05:17:41;;;;;;;6.37;3.67;;;;;;;1.76;85.11;96303.51;1749950;82;21595;-69
2021/01/31 05:20:22;;;;;;;6.17;3.87;;;;;;;1.83;84.72;96305.42;1749599;82;21242;-64
2021/01/31 05:22:55;;;;;;;8.48;4.47;;;;;;;1.95;84.40;96298.92;1749067;82;21171;-67
2021/01/31 05:25:32;;;;;;;9.18;5.50;;;;;;;1.89;83.69;96292.13;1762793;81;21150;-69
2021/01/31 05:28:04;;;;;;;9.18;3.87;;;;;;;1.95;83.55;96284.84;1758151;81;21145;-69
2021/01/31 05:30:34;;;;;;;5.97;3.33;;;;;;;2.01;83.25;96295.39;1759385;81;21165;-69
2021/01/31 05:36:32;;;;;;;6.58;4.40;;;;;;;2.09;82.55;96298.11;1752312;82;21183;-65
2021/01/31 05:39:02;;;;;;;5.50;3.58;;;;;;;2.09;82.58;96298.11;1731346;81;21587;-65
2021/01/31 05:45:23;;;;;;;6.90;4.00;;;;;;;2.16;82.08;96306.06;1726382;82;21143;-65
2021/01/31 05:47:52;;;;;;;7.15;3.98;;;;;;;2.14;81.89;96301.56;1726486;82;21332;-66
2021/01/31 05:50:36;;;;;;;7.67;4.75;;;;;;;1.94;82.56;96312.69;1726175;82;21211;-66
2021/01/31 05:53:32;;;;;;;5.55;3.35;;;;;;;1.80;83.34;96311.27;1726334;82;21176;-65
2021/01/31 05:56:25;;;;;;;10.23;5.33;;;;;;;1.69;84.06;96319.86;1726156;83;21179;-65
2021/01/31 05:59:09;;;;;;;6.78;4.60;;;;;;;1.59;84.82;96327.16;1726145;83;21199;-65
2021/01/31 06:02:02;;;;;;;7.62;3.30;;;;;;;1.47;85.64;96333.28;1714025;83;21167;-65
2021/01/31 06:04:31;;;;;;;3.90;2.83;;;;;;;1.41;85.83;96342.25;1726178;82;22322;-70
2021/01/31 06:07:10;;;;;;;6.28;4.15;;;;;;;1.33;86.26;96344.16;1726267;82;21588;-71
2021/01/31 06:09:48;;;;;;;8.20;3.95;;;;;;;1.29;86.60;96347.91;1725963;83;21174;-70
2021/01/31 06:12:24;;;;;;;6.65;4.10;;;;;;;1.29;86.50;96356.86;1726252;83;21155;-69
2021/01/31 06:15:12;;;;;;;6.28;3.62;;;;;;;1.33;86.19;96363.34;1726510;82;21674;-70
2021/01/31 06:17:41;;;;;;;7.50;4.40;;;;;;;1.34;85.91;96358.58;1725893;82;21172;-70
2021/01/31 06:20:20;;;;;;;9.03;4.85;;;;;;;1.30;86.29;96362.78;1725947;83;21179;-72
2021/01/31 06:22:50;;;;;;;4.92;4.10;;;;;;;1.25;86.74;96364.89;1725427;83;21285;-70
2021/01/31 06:29:04;;;;;;;5.83;4.03;;;;;;;1.27;86.78;96371.52;1704887;81;21455;-71
2021/01/31 06:38:28;;;;;;;7.25;2.98;;;;;;;1.20;87.14;96390.05;1764730;79;21165;-70
2021/01/31 06:41:40;;;;;;;4.47;3.30;;;;;;;1.30;86.71;96396.03;1757891;81;21957;-70
2021/01/31 06:44:16;;;;;;;6.55;3.35;;;;;;;1.38;86.33;96407.73;1758292;81;21548;-71
2021/01/31 06:53:37;;;;;;;9.40;5.58;;;;;;;1.47;85.69;96413.39;1779314;80;21201;-69
2021/01/31 06:56:31;;;;;;;7.65;4.37;;;;;;;1.54;85.44;96419.63;1780181;80;21145;-70
2021/01/31 07:03:38;;;;;;;3.65;2.92;;;;;;;1.53;84.92;96430.78;1762352;77;21135;-71
2021/01/31 07:06:32;;;;;;;4.20;3.80;;;;;;;1.44;84.97;96438.73;1725688;82;21155;-69
2021/01/31 07:09:24;;;;;;;8.90;4.67;;;;;;;1.34;85.37;96444.25;1762067;81;21187;-69
2021/01/31 07:12:05;;;;;;;4.92;3.87;;;;;;;1.25;85.65;96444.16;1762429;81;21144;-69
2021/01/31 07:15:03;;;;;;;4.10;3.20;;;;;;;1.27;85.67;96453.82;1725814;82;21170;-64
2021/01/31 07:17:45;;;;;;;4.53;3.22;;;;;;;1.28;85.44;96458.01;1761857;81;21156;-64
2021/01/31 07:20:26;;;;;;;4.95;4.40;;;;;;;1.39;85.11;96459.23;1725494;82;21187;-69
2021/01/31 07:26:30;;;;;;;6.50;3.50;;;;;;;1.43;84.27;96461.43;1755484;82;21175;-68
2021/01/31 07:29:41;;;;;;;4.40;2.95;;;;;;;1.52;83.99;96463.69;1742421;82;21353;-67
2021/01/31 07:32:15;;;;;;;7.65;3.95;;;;;;;1.63;83.54;96464.13;1759331;81;21293;-66
2021/01/31 07:34:51;;;;;;;4.22;2.60;;;;;;;1.67;82.76;96474.46;1759292;80;21572;-67
2021/01/31 07:37:20;;;;;;;3.65;2.98;;;;;;;1.62;81.90;96468.89;1759078;80;21147;-67
2021/01/31 07:40:22;;;;;;;8.45;4.45;;;;;;;1.75;81.95;96464.41;1756099;80;21641;-67
2021/01/31 07:42:55;;;;;;;4.97;4.28;;;;;;;1.76;81.53;96478.34;1785844;80;21556;-66
2021/01/31 07:45:26;;;;;;;8.98;4.53;;;;;;;1.81;81.51;96477.98;1786082;80;21178;-66
2021/01/31 07:48:32;;;;;;;6.08;3.65;;;;;;;1.84;81.15;96486.68;1786057;80;21163;-68
2021/01/31 07:51:03;;;;;;;4.40;2.75;;;;;;;1.84;80.99;96490.05;1785938;80;21119;-68
2021/01/31 07:53:41;;;;;;;3.77;3.15;;;;;;;1.94;80.76;96496.53;1785920;80;21595;-67
2021/01/31 07:56:46;;;;;;;3.95;3.12;;;;;;;1.95;80.05;96490.45;1786061;80;21159;-66
2021/01/31 07:59:22;;;;;;;9.38;4.83;;;;;;;1.95;79.40;96485.33;1758859;81;21152;-71
2021/01/31 08:01:57;;;;;;;7.15;3.10;;;;;;;1.92;79.43;96479.19;1720066;83;21163;-71
2021/01/31 08:04:39;;;;;;;3.87;2.45;;;;;;;1.75;79.28;96481.84;1690079;85;21171;-71
2021/01/31 08:07:08;;;;;;;5.97;3.12;;;;;;;1.68;79.47;96490.13;1720701;83;21179;-70
2021/01/31 08:10:00;;;;;;;5.40;3.05;;;;;;;1.67;79.43;96494.47;1736148;83;21163;-71
2021/01/31 08:12:56;;;;;;;2.15;1.92;;;;;;;1.61;78.93;96499.25;1756333;81;21168;-71
2021/01/31 08:15:58;;;;;;;5.67;2.80;;;;;;;1.53;78.84;96497.77;1756345;81;21179;-70
2021/01/31 08:18:26;;;;;;;3.58;2.90;;;;;;;1.54;79.21;96499.40;1781175;79;21147;-70
2021/01/31 08:20:55;;;;;;;5.22;2.98;;;;;;;1.57;79.19;96502.98;1778568;79;21274;-70
2021/01/31 08:23:35;;;;;;;4.87;2.92;;;;;;;1.52;79.08;96497.44;1778256;79;21140;-71
2021/01/31 08:26:06;;;;;;;4.55;2.58;;;;;;;1.57;79.18;96496.13;1778619;80;21285;-70
2021/01/31 08:28:36;;;;;;;5.03;2.50;;;;;;;1.52;78.73;96493.61;1778158;80;21180;-71
2021/01/31 08:31:15;;;;;;;4.03;2.45;;;;;;;1.44;79.30;96499.30;1769603;80;21167;-70
2021/01/31 08:34:01;;;;;;;4.97;3.02;;;;;;;1.55;79.31;96501.84;1778163;79;21132;-66
2021/01/31 08:36:35;;;;;;;4.12;2.72;;;;;;;1.57;78.94;96511.94;1778094;80;21167;-66
2021/01/31 08:39:05;;;;;;;4.65;2.45;;;;;;;1.38;79.01;96524.10;1783299;80;21195;-66
2021/01/31 08:41:40;;;;;;;3.92;2.60;;;;;;;1.48;79.03;96524.20;1764250;80;21584;-66
2021/01/31 08:44:17;;;;;;;3.58;2.22;;;;;;;1.53;78.56;96521.61;1783446;80;21198;-66
2021/01/31 08:47:01;;;;;;;5.53;2.98;;;;;;;1.60;78.48;96521.92;1783595;79;21222;-66
2021/01/31 08:49:29;;;;;;;4.40;1.65;;;;;;;1.58;77.70;96528.92;1783155;79;21588;-70
2021/01/31 08:52:09;;;;;;;2.65;2.37;;;;;;;1.63;77.61;96524.26;1783423;80;21160;-70
2021/01/31 08:54:37;;;;;;;3.80;2.72;;;;;;;1.70;77.44;96532.59;1783165;80;21132;-70
2021/01/31 08:57:12;;;;;;;3.02;1.65;;;;;;;1.72;77.25;96528.62;1784074;79;21223;-71
2021/01/31 08:59:48;;;;;;;4.15;2.52;;;;;;;1.69;77.00;96530.16;1783357;79;21104;-72
2021/01/31 09:02:26;;;;;;;3.12;2.33;;;;;;;1.62;77.31;96518.78;1784011;80;21124;-70
2021/01/31 09:05:29;;;;;;;2.55;1.85;;;;;;;1.65;77.24;96523.19;1783427;79;21123;-70
2021/01/31 09:08:22;;;;;;;6.37;2.83;;;;;;;1.63;77.03;96517.86;1708605;81;21602;-69
2021/01/31 09:10:50;;;;;;;4.03;2.75;;;;;;;1.54;76.97;96529.64;1742861;81;21175;-70
2021/01/31 09:13:30;;;;;;;6.03;3.25;;;;;;;1.42;77.56;96533.98;1742875;82;21175;-70
2021/01/31 09:16:29;;;;;;;3.37;3.05;;;;;;;1.38;77.90;96521.08;1742752;82;21139;-66
2021/01/31 09:19:29;;;;;;;5.08;2.52;;;;;;;1.34;78.30;96523.53;1732970;82;21171;-66
2021/01/31 09:22:22;;;;;;;4.37;2.22;;;;;;;1.42;78.02;96528.86;1768615;79;21167;-65
2021/01/31 09:24:55;;;;;;;3.22;1.95;;;;;;;1.43;77.87;96532.23;1779648;79;21179;-66
2021/01/31 09:27:25;;;;;;;5.47;3.30;;;;;;;1.47;77.92;96532.34;1779947;79;21217;-66
2021/01/31 09:30:04;;;;;;;5.00;2.92;;;;;;;1.46;77.83;96531.17;1780526;79;21135;-69
2021/01/31 09:32:58;;;;;;;4.05;2.15;;;;;;;1.47;77.58;96527.69;1779755;79;21579;-70
2021/01/31 09:35:30;;;;;;;4.83;2.77;;;;;;;1.43;77.57;96523.28;1791396;79;21567;-70
2021/01/31 09:38:22;;;;;;;3.30;1.70;;;;;;;1.49;77.72;96525.34;1791426;80;21170;-70
2021/01/31 09:40:55;;;;;;;3.20;2.00;;;;;;;1.55;77.73;96517.66;1791353;79;21182;-70
2021/01/31 09:43:30;;;;;;;2.98;2.47;;;;;;;1.64;77.51;96518.18;1791297;80;21190;-70
2021/01/31 09:46:02;;;;;;;6.50;3.90;;;;;;;1.64;77.62;96521.55;1791383;80;21665;-70
2021/01/31 09:48:32;;;;;;;3.70;2.15;;;;;;;1.63;77.63;96519.95;1791176;80;21182;-66
2021/01/31 09:51:05;;;;;;;5.65;3.33;;;;;;;1.70;77.50;96530.04;1791327;80;21306;-66
2021/01/31 09:53:38;;;;;;;4.08;2.20;;;;;;;1.66;77.63;96527.84;1791318;80;21130;-66
2021/01/31 09:56:14;;;;;;;4.55;3.00;;;;;;;1.71;77.61;96527.80;1791368;80;21158;-66
2021/01/31 09:58:46;;;;;;;4.72;2.27;;;;;;;1.78;77.53;96527.68;1787048;79;21300;-66
2021/01/31 10:01:24;;;;;;;2.77;2.37;;;;;;;1.82;76.84;96535.45;1791323;79;21182;-66
2021/01/31 10:04:06;;;;;;;4.08;2.30;;;;;;;1.82;76.93;96526.96;1791197;79;21793;-66
2021/01/31 10:06:44;;;;;;;5.12;2.77;;;;;;;1.87;76.98;96520.52;1791913;79;21158;-66
2021/01/31 10:09:12;;;;;;;5.15;2.50;;;;;;;1.88;76.62;96517.03;1791371;79;21187;-66
2021/01/31 10:11:48;;;;;;;3.85;2.10;;;;;;;1.81;76.33;96519.75;1791375;79;21186;-66
2021/01/31 10:14:44;;;;;;;2.30;2.10;;;;;;;1.90;76.50;96519.02;1795806;79;21143;-66
2021/01/31 10:17:19;;;;;;;4.75;3.17;;;;;;;1.93;76.27;96517.13;1796230;79;21127;-66
2021/01/31 10:19:51;;;;;;;4.85;3.22;;;;;;;2.03;76.24;96523.11;1782910;80;21231;-66
2021/01/31 10:22:26;;;;;;;5.62;2.25;;;;;;;1.92;75.71;96523.98;1775402;80;21209;-66
2021/01/31 10:24:54;;;;;;;6.28;3.00;;;;;;;1.95;76.43;96524.20;1782797;79;21193;-66
2021/01/31 10:27:28;;;;;;;3.72;2.35;;;;;;;2.03;76.48;96516.24;1782821;80;21183;-66
2021/01/31 10:30:19;;;;;;;5.90;3.40;;;;;;;2.10;76.19;96514.80;1782820;80;21738;-66
2021/01/31 10:33:09;;;;;;;4.42;2.75;;;;;;;2.08;76.06;96514.12;1782596;80;21214;-66
2021/01/31 10:35:40;;;;;;;3.87;2.10;;;;;;;2.13;75.53;96511.20;1692580;83;21171;-66
2021/01/31 10:38:29;;;;;;;5.97;3.02;;;;;;;2.01;76.05;96514.29;1679148;85;21201;-70
2021/01/31 10:41:00;;;;;;;5.10;3.60;;;;;;;2.05;76.24;96516.94;1696274;83;21155;-70
2021/01/31 10:43:28;;;;;;;7.03;3.72;;;;;;;2.06;76.43;96520.32;1679066;85;21293;-71
2021/01/31 10:45:57;;;;;;;6.42;3.67;;;;;;;2.09;76.15;96517.50;1679099;85;21541;-70
2021/01/31 10:48:26;;;;;;;4.92;3.12;;;;;;;2.14;76.43;96526.41;1689547;84;21172;-71
2021/01/31 10:50:55;;;;;;;5.83;2.95;;;;;;;2.20;76.07;96518.71;1696418;83;21171;-71
2021/01/31 10:53:23;;;;;;;4.10;3.42;;;;;;;2.23;75.71;96510.30;1678954;85;21204;-71
2021/01/31 10:55:51;;;;;;;7.42;2.83;;;;;;;2.24;75.94;96502.97;1696647;83;21200;-70
2021/01/31 10:58:19;;;;;;;4.55;3.40;;;;;;;2.28;75.90;96508.64;1679436;85;21596;-71
2021/01/31 11:00:47;;;;;;;4.97;2.77;;;;;;;2.34;75.94;96508.94;1696630;83;21597;-70
2021/01/31 11:03:15;;;;;;;6.62;3.95;;;;;;;2.38;75.73;96505.66;1679702;85;21228;-71
2021/01/31 11:05:44;;;;;;;5.25;2.98;;;;;;;2.47;75.81;96503.61;1696514;83;21187;-70
2021/01/31 11:08:12;;;;;;;9.73;3.95;;;;;;;2.44;74.87;96500.50;1678978;85;21163;-71
2021/01/31 11:10:41;;;;;;;6.78;3.37;;;;;;;2.42;75.01;96507.48;1689864;84;21325;-71
2021/01/31 11:13:09;;;;;;;6.12;3.02;;;;;;;2.15;75.04;96511.86;1678911;85;21184;-71
2021/01/31 11:15:37;;;;;;;7.03;3.15;;;;;;;2.24;74.83;96520.90;1690368;84;21203;-66
2021/01/31 11:18:06;;;;;;;6.80;4.08;;;;;;;2.28;74.61;96517.14;1696631;83;21172;-66
2021/01/31 11:20:34;;;;;;;4.78;4.08;;;;;;;2.35;74.69;96506.73;1679220;85;21176;-66
2021/01/31 11:23:02;;;;;;;5.28;3.35;;;;;;;2.45;74.66;96508.53;1696777;83;21174;-71
2021/01/31 11:25:44;;;;;;;5.20;2.75;;;;;;;2.51;74.87;96511.85;1745215;81;21187;-71
2021/01/31 11:28:12;;;;;;;3.62;2.85;;;;;;;2.56;74.39;96519.51;1787530;80;21160;-71
2021/01/31 11:30:40;;;;;;;5.95;3.33;;;;;;;2.60;74.31;96512.38;1793262;80;21138;-71
2021/01/31 11:33:09;;;;;;;10.55;3.65;;;;;;;2.63;74.00;96505.23;1787403;80;21179;-71
2021/01/31 11:35:38;;;;;;;5.47;2.40;;;;;;;2.68;74.17;96504.38;1793207;80;21190;-66
2021/01/31 11:38:06;;;;;;;4.33;2.80;;;;;;;2.71;74.14;96495.15;1787808;80;21175;-66
2021/01/31 11:40:35;;;;;;;5.17;3.50;;;;;;;2.71;73.77;96496.90;1793234;80;21215;-67
2021/01/31 11:43:03;;;;;;;5.05;2.77;;;;;;;2.72;73.87;96494.19;1787485;80;21186;-67
2021/01/31 11:45:31;;;;;;;10.68;4.05;;;;;;;2.61;73.87;96499.88;1793263;80;21198;-67
2021/01/31 11:48:00;;;;;;;5.35;3.27;;;;;;;2.64;73.93;96499.64;1787414;80;21571;-66
2021/01/31 11:50:28;;;;;;;4.47;2.37;;;;;;;2.62;74.17;96502.33;1792961;80;21123;-67
2021/01/31 11:52:57;;;;;;;6.12;3.45;;;;;;;2.61;74.13;96499.88;1787693;80;21111;-66
2021/01/31 11:55:25;;;;;;;4.80;3.33;;;;;;;2.62;74.10;96503.60;1793130;80;21103;-66
2021/01/31 11:57:53;;;;;;;6.12;4.00;;;;;;;2.57;73.90;96498.55;1787295;80;21150;-66
2021/01/31 12:00:22;;;;;;;5.72;2.77;;;;;;;2.51;74.26;96505.45;1793170;80;21138;-66
2021/01/31 12:02:50;;;;;;;4.60;2.72;;;;;;;2.49;74.39;96497.09;1787595;80;21215;-66
2021/01/31 12:05:20;;;;;;;4.37;3.27;;;;;;;2.44;74.19;96499.22;1793236;80;21163;-70
2021/01/31 12:07:48;;;;;;;5.70;3.27;;;;;;;2.32;74.26;96501.86;1787414;80;21162;-70
2021/01/31 12:10:18;;;;;;;4.30;2.95;;;;;;;2.34;74.51;96500.44;1792958;80;21162;-71
2021/01/31 12:12:46;;;;;;;3.30;2.72;;;;;;;2.38;74.52;96501.81;1787429;80;21163;-70
2021/01/31 12:15:16;;;;;;;8.68;4.08;;;;;;;2.38;74.58;96498.78;1793116;80;21139;-70
2021/01/31 12:17:46;;;;;;;6.42;3.45;;;;;;;2.24;75.27;96486.32;1787473;80;21206;-71
2021/01/31 12:20:16;;;;;;;4.50;3.15;;;;;;;2.33;74.79;96492.44;1792891;80;21150;-71
2021/01/31 12:22:47;;;;;;;6.50;3.15;;;;;;;2.37;74.89;96492.02;1787624;80;21131;-71
2021/01/31 12:25:18;;;;;;;4.17;2.98;;;;;;;2.38;74.68;96499.25;1774837;79;21170;-71
2021/01/31 12:28:12;;;;;;;6.28;3.20;;;;;;;2.32;74.94;96494.18;1766507;81;21754;-70
2021/01/31 12:30:40;;;;;;;4.62;2.90;;;;;;;2.35;75.15;96493.11;1780247;80;21584;-71
2021/01/31 12:33:09;;;;;;;4.67;2.72;;;;;;;2.42;75.08;96491.65;1780441;80;21205;-71
2021/01/31 12:35:38;;;;;;;6.72;3.35;;;;;;;2.47;74.84;96488.70;1780363;80;21170;-71
2021/01/31 12:38:06;;;;;;;3.75;2.72;;;;;;;2.51;74.65;96487.51;1787006;79;21146;-71
2021/01/31 12:40:35;;;;;;;4.40;3.45;;;;;;;2.49;74.35;96494.53;1787927;79;21134;-70
2021/01/31 12:43:03;;;;;;;6.15;3.02;;;;;;;2.47;74.36;96499.77;1788093;80;21150;-71
2021/01/31 12:45:31;;;;;;;6.25;2.65;;;;;;;2.53;74.48;96500.52;1788044;80;21133;-70
2021/01/31 12:47:59;;;;;;;6.37;2.40;;;;;;;2.56;74.30;96502.04;1787894;80;21146;-71
2021/01/31 12:50:32;;;;;;;5.42;2.72;;;;;;;2.51;73.91;96499.04;1787939;80;21110;-70
2021/01/31 12:53:01;;;;;;;4.65;2.92;;;;;;;2.50;74.15;96495.66;1787960;80;21141;-70
2021/01/31 12:55:30;;;;;;;4.72;2.80;;;;;;;2.52;74.28;96495.08;1788241;80;21154;-70
2021/01/31 12:57:58;;;;;;;7.97;3.37;;;;;;;2.49;73.90;96486.34;1788092;79;21170;-71
2021/01/31 13:00:26;;;;;;;8.35;3.60;;;;;;;2.51;73.96;96481.92;1788930;80;21264;-71
2021/01/31 13:02:55;;;;;;;3.75;3.22;;;;;;;2.50;73.62;96488.44;1788798;79;21169;-71
2021/01/31 13:05:30;;;;;;;6.80;4.08;;;;;;;2.51;73.77;96482.38;1788391;80;21371;-70
2021/01/31 13:08:02;;;;;;;6.03;3.02;;;;;;;2.50;73.81;96484.59;1788055;79;21141;-71
2021/01/31 13:10:32;;;;;;;4.22;3.25;;;;;;;2.50;73.82;96494.84;1788088;79;21169;-71
2021/01/31 13:13:01;;;;;;;5.87;3.20;;;;;;;2.50;73.98;96495.66;1788175;80;21142;-71
2021/01/31 13:15:30;;;;;;;6.10;2.75;;;;;;;2.41;74.38;96501.58;1788244;80;21137;-70